createdAt,value
2019-06-10T00:00:31.122Z,435.90
2019-06-10T00:01:06.576Z,428.00
2019-06-10T00:01:40.790Z,431.80
2019-06-10T00:02:14.290Z,448.00
2019-06-10T00:02:50.789Z,438.10
2019-06-10T00:03:25.800Z,421.00
2019-06-10T00:04:05.117Z,435.30
2019-06-10T00:04:36.846Z,442.80
2019-06-10T00:05:12.406Z,441.80
2019-06-10T00:05:48.028Z,438.20
2019-06-10T00:06:23.415Z,451.90
2019-06-10T00:07:00.995Z,422.40
2019-06-10T00:07:34.256Z,410.80
2019-06-10T00:08:11.958Z,416.50
2019-06-10T00:08:45.167Z,443.60
2019-06-10T00:09:21.110Z,454.20
2019-06-10T00:09:56.222Z,447.10
2019-06-10T00:10:31.451Z,427.60
2019-06-10T00:11:07.820Z,437.90
2019-06-10T00:11:42.259Z,443.00
2019-06-10T00:12:17.725Z,439.40
2019-06-10T00:12:55.389Z,444.00
2019-06-10T00:13:28.549Z,424.30
2019-06-10T00:14:04.577Z,437.80
2019-06-10T00:14:41.670Z,447.00
2019-06-10T00:15:14.858Z,445.20
2019-06-10T00:15:51.547Z,434.70
2019-06-10T00:16:25.575Z,449.50
2019-06-10T00:17:02.033Z,439.00
2019-06-10T00:17:50.637Z,429.80
2019-06-10T00:18:34.321Z,451.80
2019-06-10T00:18:47.350Z,445.60
2019-06-10T00:19:22.808Z,430.00
2019-06-10T00:19:59.201Z,441.60
2019-06-10T00:20:33.793Z,435.60
2019-06-10T00:21:11.221Z,444.60
2019-06-10T00:21:44.907Z,441.50
2019-06-10T00:22:21.571Z,427.80
2019-06-10T00:22:57.398Z,429.50
2019-06-10T00:23:32.082Z,439.50
2019-06-10T00:24:08.272Z,458.50
2019-06-10T00:24:42.599Z,455.30
2019-06-10T00:25:17.950Z,434.20
2019-06-10T00:25:53.282Z,426.10
2019-06-10T00:26:30.613Z,432.70
2019-06-10T00:27:05.567Z,442.10
2019-06-10T00:27:41.870Z,463.90
2019-06-10T00:28:15.082Z,444.60
2019-06-10T00:28:51.336Z,423.90
2019-06-10T00:29:25.914Z,427.80
2019-06-10T00:30:03.391Z,437.50
2019-06-10T00:30:36.707Z,438.50
2019-06-10T00:31:12.374Z,460.60
2019-06-10T00:31:47.898Z,441.50
2019-06-10T00:32:23.269Z,429.10
2019-06-10T00:32:58.813Z,439.80
2019-06-10T00:33:34.261Z,433.20
2019-06-10T00:34:12.101Z,417.50
2019-06-10T00:34:45.342Z,425.10
2019-06-10T00:35:21.080Z,425.50
2019-06-10T00:35:56.026Z,424.40
2019-06-10T00:36:31.491Z,425.90
2019-06-10T00:37:09.177Z,421.20
2019-06-10T00:37:42.124Z,419.50
2019-06-10T00:38:17.502Z,418.00
2019-06-10T00:38:52.836Z,426.80
2019-06-10T00:39:28.419Z,436.90
2019-06-10T00:40:05.470Z,437.10
2019-06-10T00:40:41.143Z,433.00
2019-06-10T00:41:14.660Z,427.00
2019-06-10T00:41:52.014Z,447.70
2019-06-10T00:42:25.606Z,446.40
2019-06-10T00:43:02.625Z,430.10
2019-06-10T00:43:36.506Z,422.70
2019-06-10T00:44:12.798Z,427.20
2019-06-10T00:44:47.218Z,431.90
2019-06-10T00:45:22.687Z,448.90
2019-06-10T00:45:58.407Z,428.50
2019-06-10T00:46:33.873Z,446.10
2019-06-10T00:47:14.283Z,446.20
2019-06-10T00:47:44.473Z,440.50
2019-06-10T00:48:26.116Z,445.20
2019-06-10T00:48:55.562Z,457.50
2019-06-10T00:49:31.680Z,454.60
2019-06-10T00:50:08.193Z,472.60
2019-06-10T00:50:41.975Z,455.30
2019-06-10T00:51:17.608Z,451.40
2019-06-10T00:51:53.080Z,438.80
2019-06-10T00:52:30.720Z,448.70
2019-06-10T00:53:04.492Z,462.90
2019-06-10T00:53:39.147Z,467.20
2019-06-10T00:54:15.709Z,447.80
2019-06-10T00:54:51.736Z,441.80
2019-06-10T00:55:25.474Z,454.50
2019-06-10T00:56:02.442Z,468.20
2019-06-10T00:56:36.498Z,461.40
2019-06-10T00:57:12.337Z,459.90
2019-06-10T00:57:47.298Z,460.20
2019-06-10T00:58:22.639Z,462.80
2019-06-10T00:58:57.810Z,450.70
2019-06-10T00:59:33.223Z,462.60
2019-06-10T01:00:23.119Z,464.10
2019-06-10T01:00:43.976Z,453.50
2019-06-10T01:01:21.745Z,465.10
2019-06-10T01:01:54.628Z,472.60
2019-06-10T01:02:31.743Z,461.10
2019-06-10T01:03:06.008Z,453.70
2019-06-10T01:03:41.525Z,461.80
2019-06-10T01:04:16.523Z,457.30
2019-06-10T01:04:51.546Z,453.60
2019-06-10T01:05:27.176Z,452.10
2019-06-10T01:06:03.085Z,460.90
2019-06-10T01:06:38.105Z,474.30
2019-06-10T01:07:14.788Z,468.80
2019-06-10T01:07:50.781Z,471.40
2019-06-10T01:08:25.055Z,466.90
2019-06-10T01:09:00.658Z,447.90
2019-06-10T01:09:35.805Z,448.30
2019-06-10T01:10:12.819Z,458.40
2019-06-10T01:10:46.839Z,461.50
2019-06-10T01:11:26.858Z,473.80
2019-06-10T01:11:57.352Z,453.40
2019-06-10T01:12:33.302Z,443.60
2019-06-10T01:13:09.668Z,458.80
2019-06-10T01:13:44.036Z,461.10
2019-06-10T01:14:21.359Z,460.40
2019-06-10T01:14:54.689Z,457.70
2019-06-10T01:15:31.158Z,464.30
2019-06-10T01:16:05.506Z,461.10
2019-06-10T01:16:41.259Z,477.10
2019-06-10T01:17:16.623Z,472.80
2019-06-10T01:17:52.082Z,469.40
2019-06-10T01:18:35.647Z,469.90
2019-06-10T01:19:03.793Z,457.40
2019-06-10T01:19:38.544Z,451.80
2019-06-10T01:20:15.643Z,457.50
2019-06-10T01:20:51.565Z,459.80
2019-06-10T01:21:25.146Z,448.20
2019-06-10T01:22:01.595Z,452.10
2019-06-10T01:22:35.851Z,456.30
2019-06-10T01:23:13.805Z,446.10
2019-06-10T01:23:46.991Z,446.50
2019-06-10T01:24:22.478Z,448.80
2019-06-10T01:24:57.789Z,458.00
2019-06-10T01:25:33.170Z,458.40
2019-06-10T01:26:12.310Z,459.70
2019-06-10T01:26:44.020Z,440.50
2019-06-10T01:27:21.069Z,447.90
2019-06-10T01:27:54.851Z,461.90
2019-06-10T01:28:31.447Z,475.20
2019-06-10T01:29:05.642Z,470.30
2019-06-10T01:29:41.604Z,471.60
2019-06-10T01:30:21.653Z,458.50
2019-06-10T01:30:51.701Z,450.60
2019-06-10T01:31:26.784Z,449.90
2019-06-10T01:32:02.100Z,451.60
2019-06-10T01:32:37.526Z,455.90
2019-06-10T01:33:14.436Z,454.40
2019-06-10T01:33:48.369Z,447.80
2019-06-10T01:34:23.799Z,457.60
2019-06-10T01:35:01.114Z,443.10
2019-06-10T01:35:34.528Z,450.20
2019-06-10T01:36:12.650Z,463.50
2019-06-10T01:36:45.443Z,461.90
2019-06-10T01:37:21.866Z,461.60
2019-06-10T01:37:56.290Z,456.30
2019-06-10T01:38:31.779Z,460.30
2019-06-10T01:39:07.408Z,453.30
2019-06-10T01:39:42.826Z,448.80
2019-06-10T01:40:18.087Z,438.50
2019-06-10T01:40:53.603Z,432.90
2019-06-10T01:41:30.552Z,447.60
2019-06-10T01:42:04.597Z,476.60
2019-06-10T01:42:41.276Z,468.70
2019-06-10T01:43:17.320Z,473.80
2019-06-10T01:43:51.321Z,458.10
2019-06-10T01:44:26.221Z,442.40
2019-06-10T01:45:01.683Z,450.50
2019-06-10T01:45:37.054Z,461.10
2019-06-10T01:46:14.112Z,464.10
2019-06-10T01:46:47.984Z,452.60
2019-06-10T01:47:23.338Z,456.90
2019-06-10T01:47:58.798Z,441.90
2019-06-10T01:48:44.321Z,447.80
2019-06-10T01:49:11.543Z,449.40
2019-06-10T01:49:45.032Z,452.20
2019-06-10T01:50:21.818Z,462.60
2019-06-10T01:50:55.891Z,473.70
2019-06-10T01:51:31.707Z,455.50
2019-06-10T01:52:07.241Z,449.00
2019-06-10T01:52:41.981Z,463.10
2019-06-10T01:53:18.583Z,456.00
2019-06-10T01:53:52.680Z,457.20
2019-06-10T01:54:28.240Z,470.80
2019-06-10T01:55:03.705Z,451.20
2019-06-10T01:55:41.451Z,437.70
2019-06-10T01:56:15.470Z,444.60
2019-06-10T01:56:51.070Z,453.20
2019-06-10T01:57:25.528Z,441.40
2019-06-10T01:58:00.971Z,434.00
2019-06-10T01:58:36.431Z,445.10
2019-06-10T01:59:13.731Z,472.50
2019-06-10T01:59:47.554Z,488.20
2019-06-10T02:00:25.867Z,479.40
2019-06-10T02:00:58.284Z,467.70
2019-06-10T02:01:33.845Z,459.90
2019-06-10T02:02:12.079Z,454.10
2019-06-10T02:02:45.051Z,451.70
2019-06-10T02:03:23.736Z,458.50
2019-06-10T02:03:55.675Z,451.00
2019-06-10T02:04:32.053Z,460.20
2019-06-10T02:05:06.617Z,460.90
2019-06-10T02:05:42.126Z,448.30
2019-06-10T02:06:20.554Z,453.30
2019-06-10T02:06:52.866Z,451.40
2019-06-10T02:07:28.356Z,453.40
2019-06-10T02:08:03.813Z,473.90
2019-06-10T02:08:41.686Z,460.90
2019-06-10T02:09:15.537Z,447.40
2019-06-10T02:09:51.767Z,444.70
2019-06-10T02:10:25.994Z,440.50
2019-06-10T02:11:01.401Z,456.50
2019-06-10T02:11:36.730Z,458.50
2019-06-10T02:12:14.607Z,458.90
2019-06-10T02:12:47.724Z,441.20
2019-06-10T02:13:23.200Z,442.80
2019-06-10T02:14:00.781Z,459.40
2019-06-10T02:14:34.408Z,439.60
2019-06-10T02:15:12.089Z,440.40
2019-06-10T02:15:44.811Z,456.40
2019-06-10T02:16:23.905Z,467.20
2019-06-10T02:16:55.942Z,467.30
2019-06-10T02:17:31.588Z,455.50
2019-06-10T02:18:06.567Z,460.40
2019-06-10T02:18:54.426Z,469.30
2019-06-10T02:19:18.589Z,466.60
2019-06-10T02:19:52.868Z,466.40
2019-06-10T02:20:28.261Z,460.80
2019-06-10T02:21:03.568Z,461.50
2019-06-10T02:21:41.575Z,465.00
2019-06-10T02:22:17.003Z,470.00
2019-06-10T02:22:51.592Z,463.30
2019-06-10T02:23:25.527Z,461.60
2019-06-10T02:24:01.026Z,457.50
2019-06-10T02:24:36.038Z,462.80
2019-06-10T02:25:12.542Z,465.70
2019-06-10T02:25:47.137Z,459.00
2019-06-10T02:26:23.685Z,457.90
2019-06-10T02:26:58.278Z,459.40
2019-06-10T02:27:33.647Z,465.20
2019-06-10T02:28:08.983Z,463.60
2019-06-10T02:28:44.370Z,452.20
2019-06-10T02:29:21.785Z,458.30
2019-06-10T02:29:55.344Z,455.90
2019-06-10T02:30:41.724Z,441.20
2019-06-10T02:31:06.145Z,455.20
2019-06-10T02:31:43.111Z,466.40
2019-06-10T02:32:22.525Z,463.20
2019-06-10T02:32:52.505Z,454.70
2019-06-10T02:33:30.307Z,461.60
2019-06-10T02:34:03.076Z,452.50
2019-06-10T02:34:50.706Z,459.10
2019-06-10T02:35:22.613Z,459.20
2019-06-10T02:35:49.518Z,453.10
2019-06-10T02:36:31.233Z,468.30
2019-06-10T02:37:00.201Z,465.70
2019-06-10T02:37:38.255Z,457.30
2019-06-10T02:38:13.264Z,449.90
2019-06-10T02:38:46.176Z,451.90
2019-06-10T02:39:28.113Z,459.60
2019-06-10T02:39:57.378Z,466.70
2019-06-10T02:40:36.397Z,467.70
2019-06-10T02:41:07.998Z,442.20
2019-06-10T02:41:44.717Z,450.40
2019-06-10T02:42:21.618Z,466.40
2019-06-10T02:42:54.148Z,459.40
2019-06-10T02:43:32.245Z,452.50
2019-06-10T02:44:05.069Z,444.30
2019-06-10T02:44:40.287Z,439.60
2019-06-10T02:45:19.672Z,433.70
2019-06-10T02:45:53.113Z,458.80
2019-06-10T02:46:31.028Z,457.60
2019-06-10T02:47:03.375Z,452.30
2019-06-10T02:47:38.171Z,457.10
2019-06-10T02:48:13.704Z,442.20
2019-06-10T02:48:48.139Z,450.90
2019-06-10T02:49:46.281Z,445.00
2019-06-10T02:50:03.153Z,446.50
2019-06-10T02:50:36.449Z,438.10
2019-06-10T02:51:13.103Z,437.40
2019-06-10T02:51:45.088Z,447.60
2019-06-10T02:52:23.253Z,445.90
2019-06-10T02:52:56.017Z,456.00
2019-06-10T02:53:35.676Z,450.50
2019-06-10T02:54:06.811Z,455.80
2019-06-10T02:54:43.813Z,446.30
2019-06-10T02:55:19.947Z,460.60
2019-06-10T02:55:53.921Z,454.90
2019-06-10T02:56:31.011Z,450.50
2019-06-10T02:57:04.450Z,457.70
2019-06-10T02:57:40.428Z,465.20
2019-06-10T02:58:15.613Z,471.10
2019-06-10T02:58:53.200Z,465.00
2019-06-10T02:59:28.920Z,470.40
2019-06-10T03:00:06.520Z,462.40
2019-06-10T03:00:43.217Z,473.90
2019-06-10T03:01:16.331Z,479.50
2019-06-10T03:01:47.677Z,459.10
2019-06-10T03:02:28.890Z,453.40
2019-06-10T03:02:58.296Z,455.40
2019-06-10T03:03:43.299Z,460.30
2019-06-10T03:04:08.891Z,451.90
2019-06-10T03:04:44.115Z,454.70
2019-06-10T03:05:20.201Z,444.70
2019-06-10T03:05:54.562Z,456.10
2019-06-10T03:06:34.132Z,467.80
2019-06-10T03:07:05.708Z,449.70
2019-06-10T03:07:44.023Z,447.00
2019-06-10T03:08:17.957Z,449.80
2019-06-10T03:08:54.598Z,467.90
2019-06-10T03:09:31.767Z,469.30
2019-06-10T03:10:04.659Z,468.40
2019-06-10T03:10:38.141Z,469.10
2019-06-10T03:11:14.121Z,465.90
2019-06-10T03:11:49.179Z,447.80
2019-06-10T03:12:25.801Z,450.10
2019-06-10T03:13:02.354Z,451.00
2019-06-10T03:13:35.640Z,449.90
2019-06-10T03:14:12.997Z,449.20
2019-06-10T03:14:46.841Z,455.80
2019-06-10T03:15:24.518Z,458.00
2019-06-10T03:15:57.977Z,444.90
2019-06-10T03:16:33.262Z,451.40
2019-06-10T03:17:08.845Z,463.90
2019-06-10T03:17:44.267Z,458.40
2019-06-10T03:18:19.897Z,473.70
2019-06-10T03:18:55.081Z,464.50
2019-06-10T03:19:44.129Z,457.30
2019-06-10T03:20:05.626Z,450.30
2019-06-10T03:20:42.545Z,454.10
2019-06-10T03:21:16.451Z,463.60
2019-06-10T03:21:52.146Z,457.10
2019-06-10T03:22:28.355Z,456.10
2019-06-10T03:23:02.995Z,455.80
2019-06-10T03:23:38.031Z,456.40
2019-06-10T03:24:13.407Z,472.60
2019-06-10T03:24:48.846Z,469.00
2019-06-10T03:25:25.978Z,472.20
2019-06-10T03:25:59.280Z,459.60
2019-06-10T03:26:34.775Z,473.50
2019-06-10T03:27:12.530Z,471.40
2019-06-10T03:27:45.579Z,452.60
2019-06-10T03:28:23.911Z,462.70
2019-06-10T03:28:56.571Z,463.90
2019-06-10T03:29:32.754Z,450.20
2019-06-10T03:30:15.645Z,470.20
2019-06-10T03:30:53.344Z,481.60
2019-06-10T03:31:18.784Z,464.60
2019-06-10T03:31:55.206Z,464.20
2019-06-10T03:32:35.421Z,458.30
2019-06-10T03:33:04.964Z,471.70
2019-06-10T03:33:42.074Z,468.60
2019-06-10T03:34:15.585Z,468.10
2019-06-10T03:34:54.441Z,484.10
2019-06-10T03:35:26.609Z,461.60
2019-06-10T03:36:02.959Z,436.70
2019-06-10T03:36:36.482Z,445.20
2019-06-10T03:37:12.900Z,443.40
2019-06-10T03:37:47.505Z,446.60
2019-06-10T03:38:23.657Z,446.70
2019-06-10T03:38:58.199Z,446.00
2019-06-10T03:39:33.464Z,442.60
2019-06-10T03:40:08.790Z,445.20
2019-06-10T03:40:43.950Z,460.90
2019-06-10T03:41:19.184Z,473.20
2019-06-10T03:41:54.899Z,437.70
2019-06-10T03:42:32.339Z,432.10
2019-06-10T03:43:05.508Z,446.40
2019-06-10T03:43:42.681Z,476.70
2019-06-10T03:44:16.908Z,479.90
2019-06-10T03:44:52.580Z,462.20
2019-06-10T03:45:28.378Z,456.90
2019-06-10T03:46:03.072Z,467.00
2019-06-10T03:46:38.023Z,472.50
2019-06-10T03:47:13.456Z,472.30
2019-06-10T03:47:49.226Z,466.50
2019-06-10T03:48:26.743Z,462.90
2019-06-10T03:49:02.970Z,456.30
2019-06-10T03:49:49.136Z,459.70
2019-06-10T03:50:13.028Z,477.40
2019-06-10T03:50:46.409Z,479.90
2019-06-10T03:51:23.941Z,479.80
2019-06-10T03:51:57.342Z,479.90
2019-06-10T03:52:32.610Z,468.50
2019-06-10T03:53:07.740Z,463.70
2019-06-10T03:53:43.426Z,454.80
2019-06-10T03:54:19.241Z,457.70
2019-06-10T03:54:54.038Z,442.10
2019-06-10T03:55:29.279Z,432.90
2019-06-10T03:56:04.844Z,433.70
2019-06-10T03:56:42.747Z,442.50
2019-06-10T03:57:17.112Z,455.10
2019-06-10T03:57:52.620Z,463.90
2019-06-10T03:58:29.163Z,466.30
2019-06-10T03:59:02.874Z,460.40
2019-06-10T03:59:38.111Z,444.00
2019-06-10T04:00:13.946Z,438.00
2019-06-10T04:00:48.703Z,445.70
2019-06-10T04:01:26.420Z,457.80
2019-06-10T04:01:59.558Z,468.40
2019-06-10T04:02:34.896Z,465.90
2019-06-10T04:03:11.995Z,440.20
2019-06-10T04:03:45.629Z,455.00
2019-06-10T04:04:23.730Z,460.10
2019-06-10T04:04:56.731Z,457.90
2019-06-10T04:05:33.117Z,471.80
2019-06-10T04:06:07.555Z,467.20
2019-06-10T04:06:44.280Z,455.90
2019-06-10T04:07:20.106Z,440.10
2019-06-10T04:07:53.964Z,440.40
2019-06-10T04:08:29.292Z,457.20
2019-06-10T04:09:04.666Z,473.40
2019-06-10T04:09:42.386Z,473.30
2019-06-10T04:10:15.684Z,465.60
2019-06-10T04:10:52.054Z,444.60
2019-06-10T04:11:28.455Z,436.40
2019-06-10T04:12:02.407Z,445.90
2019-06-10T04:12:38.147Z,460.00
2019-06-10T04:13:13.715Z,463.20
2019-06-10T04:13:49.185Z,463.50
2019-06-10T04:14:25.442Z,463.20
2019-06-10T04:14:59.781Z,459.00
2019-06-10T04:15:35.499Z,451.50
2019-06-10T04:16:12.794Z,450.50
2019-06-10T04:16:46.470Z,452.40
2019-06-10T04:17:22.659Z,451.40
2019-06-10T04:17:57.581Z,456.10
2019-06-10T04:18:33.130Z,456.00
2019-06-10T04:19:08.395Z,448.00
2019-06-10T04:19:43.738Z,435.30
2019-06-10T04:20:19.798Z,442.70
2019-06-10T04:20:54.365Z,455.80
2019-06-10T04:21:29.628Z,452.40
2019-06-10T04:22:05.001Z,441.90
2019-06-10T04:22:40.364Z,452.60
2019-06-10T04:23:15.744Z,458.50
2019-06-10T04:23:52.758Z,458.90
2019-06-10T04:24:27.312Z,456.60
2019-06-10T04:25:03.002Z,449.90
2019-06-10T04:25:37.269Z,450.30
2019-06-10T04:26:12.697Z,458.90
2019-06-10T04:26:48.096Z,457.00
2019-06-10T04:27:25.211Z,457.00
2019-06-10T04:27:59.303Z,456.50
2019-06-10T04:28:34.880Z,436.60
2019-06-10T04:29:12.517Z,435.90
2019-06-10T04:29:45.962Z,439.80
2019-06-10T04:30:24.354Z,441.60
2019-06-10T04:30:56.803Z,447.70
2019-06-10T04:31:33.101Z,444.90
2019-06-10T04:32:07.858Z,446.30
2019-06-10T04:32:43.535Z,451.30
2019-06-10T04:33:20.261Z,457.30
2019-06-10T04:33:54.457Z,450.90
2019-06-10T04:34:32.761Z,444.80
2019-06-10T04:35:05.039Z,448.80
2019-06-10T04:35:42.573Z,454.90
2019-06-10T04:36:15.777Z,447.30
2019-06-10T04:36:52.585Z,438.00
2019-06-10T04:37:27.752Z,446.30
2019-06-10T04:38:02.526Z,442.70
2019-06-10T04:38:37.432Z,454.90
2019-06-10T04:39:12.721Z,458.00
2019-06-10T04:39:48.169Z,456.40
2019-06-10T04:40:24.696Z,455.20
2019-06-10T04:40:58.986Z,464.50
2019-06-10T04:41:34.348Z,466.90
2019-06-10T04:42:09.733Z,474.30
2019-06-10T04:42:45.235Z,458.80
2019-06-10T04:43:22.971Z,442.00
2019-06-10T04:43:56.237Z,449.10
2019-06-10T04:44:32.956Z,455.50
2019-06-10T04:45:07.036Z,450.90
2019-06-10T04:45:42.933Z,441.20
2019-06-10T04:46:18.600Z,423.40
2019-06-10T04:46:53.243Z,420.20
2019-06-10T04:47:29.614Z,431.20
2019-06-10T04:48:03.938Z,450.80
2019-06-10T04:48:39.560Z,443.10
2019-06-10T04:49:14.938Z,442.10
2019-06-10T04:49:52.132Z,450.20
2019-06-10T04:50:35.427Z,436.50
2019-06-10T04:51:02.753Z,427.00
2019-06-10T04:51:36.584Z,423.20
2019-06-10T04:52:12.262Z,448.30
2019-06-10T04:52:47.120Z,436.90
2019-06-10T04:53:23.726Z,441.80
2019-06-10T04:53:57.847Z,443.40
2019-06-10T04:54:33.445Z,447.80
2019-06-10T04:55:09.069Z,454.00
2019-06-10T04:55:44.609Z,449.50
2019-06-10T04:56:19.974Z,432.20
2019-06-10T04:56:55.266Z,427.00
2019-06-10T04:57:32.825Z,429.50
2019-06-10T04:58:06.978Z,446.10
2019-06-10T04:58:43.212Z,453.10
2019-06-10T04:59:18.769Z,441.90
2019-06-10T04:59:53.404Z,440.60
2019-06-10T05:00:29.140Z,448.10
2019-06-10T05:01:04.119Z,442.80
2019-06-10T05:01:39.633Z,441.60
2019-06-10T05:02:15.110Z,440.50
2019-06-10T05:02:52.252Z,437.60
2019-06-10T05:03:27.807Z,443.80
2019-06-10T05:04:03.145Z,446.20
2019-06-10T05:04:37.806Z,438.20
2019-06-10T05:05:13.268Z,439.10
2019-06-10T05:05:48.500Z,430.40
2019-06-10T05:06:25.505Z,406.30
2019-06-10T05:07:01.983Z,414.10
2019-06-10T05:07:37.023Z,409.80
2019-06-10T05:08:13.015Z,439.80
2019-06-10T05:08:46.420Z,452.40
2019-06-10T05:09:24.488Z,439.10
2019-06-10T05:09:57.522Z,445.80
2019-06-10T05:10:33.220Z,461.60
2019-06-10T05:11:08.437Z,439.80
2019-06-10T05:11:43.635Z,421.10
2019-06-10T05:12:19.227Z,453.50
2019-06-10T05:12:54.627Z,434.10
2019-06-10T05:13:30.079Z,433.50
2019-06-10T05:14:05.252Z,440.80
2019-06-10T05:14:43.123Z,436.50
2019-06-10T05:15:16.054Z,438.60
2019-06-10T05:15:52.727Z,434.50
2019-06-10T05:16:30.033Z,432.40
2019-06-10T05:17:02.334Z,429.40
2019-06-10T05:17:37.371Z,429.60
2019-06-10T05:18:13.151Z,434.00
2019-06-10T05:18:51.509Z,436.10
2019-06-10T05:19:25.816Z,453.50
2019-06-10T05:19:59.100Z,452.50
2019-06-10T05:20:50.820Z,437.80
2019-06-10T05:21:12.833Z,448.60
2019-06-10T05:21:45.923Z,453.70
2019-06-10T05:22:23.997Z,450.00
2019-06-10T05:22:56.749Z,450.80
2019-06-10T05:23:32.929Z,455.10
2019-06-10T05:24:07.547Z,452.50
2019-06-10T05:24:42.979Z,443.30
2019-06-10T05:25:19.724Z,441.40
2019-06-10T05:25:56.200Z,447.50
2019-06-10T05:26:30.474Z,451.70
2019-06-10T05:27:04.862Z,451.70
2019-06-10T05:27:42.737Z,448.10
2019-06-10T05:28:15.560Z,436.80
2019-06-10T05:28:52.449Z,443.70
2019-06-10T05:29:28.054Z,450.80
2019-06-10T05:30:02.331Z,453.70
2019-06-10T05:30:37.498Z,446.40
2019-06-10T05:31:13.211Z,443.90
2019-06-10T05:31:48.755Z,426.10
2019-06-10T05:32:25.904Z,426.50
2019-06-10T05:32:59.525Z,430.50
2019-06-10T05:33:35.309Z,452.10
2019-06-10T05:34:12.829Z,443.60
2019-06-10T05:34:45.816Z,432.90
2019-06-10T05:35:23.269Z,413.60
2019-06-10T05:35:56.736Z,408.10
2019-06-10T05:36:34.760Z,409.80
2019-06-10T05:37:07.700Z,413.00
2019-06-10T05:37:43.231Z,426.00
2019-06-10T05:38:18.690Z,419.90
2019-06-10T05:38:54.169Z,401.00
2019-06-10T05:39:30.761Z,399.60
2019-06-10T05:40:05.264Z,406.70
2019-06-10T05:40:42.617Z,397.00
2019-06-10T05:41:16.068Z,398.80
2019-06-10T05:41:53.107Z,401.00
2019-06-10T05:42:27.862Z,399.50
2019-06-10T05:43:02.577Z,392.20
2019-06-10T05:43:37.532Z,384.80
2019-06-10T05:44:13.424Z,401.00
2019-06-10T05:44:48.420Z,403.10
2019-06-10T05:45:25.892Z,396.50
2019-06-10T05:45:59.152Z,384.70
2019-06-10T05:46:34.997Z,391.90
2019-06-10T05:47:12.253Z,415.20
2019-06-10T05:47:45.721Z,412.40
2019-06-10T05:48:22.657Z,422.70
2019-06-10T05:48:56.628Z,420.70
2019-06-10T05:49:35.656Z,410.50
2019-06-10T05:50:07.524Z,406.90
2019-06-10T05:50:43.500Z,395.20
2019-06-10T05:51:18.861Z,397.50
2019-06-10T05:51:54.224Z,413.00
2019-06-10T05:52:29.756Z,422.30
2019-06-10T05:53:05.226Z,403.70
2019-06-10T05:53:42.622Z,391.20
2019-06-10T05:54:16.023Z,384.30
2019-06-10T05:54:52.174Z,402.40
2019-06-10T05:55:27.071Z,408.60
2019-06-10T05:56:02.378Z,406.20
2019-06-10T05:56:37.474Z,395.20
2019-06-10T05:57:13.031Z,383.80
2019-06-10T05:57:48.511Z,390.80
2019-06-10T05:58:24.727Z,390.60
2019-06-10T05:59:01.566Z,398.70
2019-06-10T05:59:36.000Z,400.40
2019-06-10T06:00:13.917Z,412.10
2019-06-10T06:00:45.756Z,408.00
2019-06-10T06:01:22.927Z,398.10
2019-06-10T06:01:57.352Z,382.00
2019-06-10T06:02:34.203Z,385.30
2019-06-10T06:03:08.171Z,392.60
2019-06-10T06:03:43.999Z,392.10
2019-06-10T06:04:19.082Z,400.40
2019-06-10T06:04:54.615Z,387.30
2019-06-10T06:05:30.214Z,384.80
2019-06-10T06:06:05.563Z,387.20
2019-06-10T06:06:42.474Z,389.30
2019-06-10T06:07:16.605Z,402.50
2019-06-10T06:08:02.246Z,387.90
2019-06-10T06:08:29.121Z,381.90
2019-06-10T06:09:03.148Z,395.10
2019-06-10T06:09:38.604Z,397.80
2019-06-10T06:10:13.882Z,387.80
2019-06-10T06:10:49.205Z,385.10
2019-06-10T06:11:25.240Z,380.30
2019-06-10T06:12:02.351Z,381.20
2019-06-10T06:12:35.794Z,375.50
2019-06-10T06:13:12.761Z,386.90
2019-06-10T06:13:45.957Z,382.60
2019-06-10T06:14:22.637Z,388.50
2019-06-10T06:14:56.688Z,388.90
2019-06-10T06:15:34.493Z,385.00
2019-06-10T06:16:07.577Z,376.10
2019-06-10T06:16:43.314Z,383.60
2019-06-10T06:17:18.422Z,389.70
2019-06-10T06:18:06.518Z,369.70
2019-06-10T06:18:33.198Z,372.80
2019-06-10T06:19:06.771Z,370.10
2019-06-10T06:19:43.328Z,363.00
2019-06-10T06:20:17.396Z,366.20
2019-06-10T06:20:52.708Z,369.30
2019-06-10T06:21:32.432Z,367.30
2019-06-10T06:22:03.506Z,366.50
2019-06-10T06:22:38.994Z,363.50
2019-06-10T06:23:14.343Z,367.50
2019-06-10T06:23:49.712Z,380.00
2019-06-10T06:24:25.549Z,384.80
2019-06-10T06:25:03.340Z,403.50
2019-06-10T06:25:39.791Z,407.40
2019-06-10T06:26:15.877Z,403.10
2019-06-10T06:26:46.844Z,386.30
2019-06-10T06:27:22.679Z,393.00
2019-06-10T06:27:58.239Z,379.50
2019-06-10T06:28:34.591Z,379.30
2019-06-10T06:29:08.655Z,371.30
2019-06-10T06:29:43.994Z,357.90
2019-06-10T06:30:19.472Z,352.40
2019-06-10T06:30:54.832Z,349.20
2019-06-10T06:31:32.594Z,362.30
2019-06-10T06:32:05.573Z,369.00
2019-06-10T06:32:43.382Z,353.80
2019-06-10T06:33:16.196Z,360.40
2019-06-10T06:33:52.764Z,359.90
2019-06-10T06:34:28.311Z,367.60
2019-06-10T06:35:02.818Z,354.80
2019-06-10T06:35:42.984Z,342.90
2019-06-10T06:36:13.646Z,353.60
2019-06-10T06:36:49.225Z,365.50
2019-06-10T06:37:25.007Z,352.40
2019-06-10T06:38:02.461Z,356.70
2019-06-10T06:38:37.189Z,358.20
2019-06-10T06:39:12.861Z,343.60
2019-06-10T06:39:46.533Z,343.50
2019-06-10T06:40:23.097Z,350.80
2019-06-10T06:40:57.642Z,363.00
2019-06-10T06:41:34.516Z,364.50
2019-06-10T06:42:08.715Z,356.00
2019-06-10T06:42:43.979Z,342.30
2019-06-10T06:43:19.359Z,338.20
2019-06-10T06:43:54.685Z,349.10
2019-06-10T06:44:32.467Z,353.00
2019-06-10T06:45:05.118Z,348.00
2019-06-10T06:45:42.453Z,352.60
2019-06-10T06:46:15.907Z,356.90
2019-06-10T06:46:53.114Z,355.50
2019-06-10T06:47:27.761Z,356.40
2019-06-10T06:48:03.011Z,350.20
2019-06-10T06:48:40.305Z,356.00
2019-06-10T06:49:14.000Z,350.70
2019-06-10T06:49:49.371Z,346.20
2019-06-10T06:50:25.680Z,352.90
2019-06-10T06:51:04.458Z,343.20
2019-06-10T06:51:47.567Z,346.10
2019-06-10T06:52:12.661Z,348.10
2019-06-10T06:53:15.729Z,347.40
2019-06-10T06:53:32.414Z,355.50
2019-06-10T06:53:57.002Z,348.90
2019-06-10T06:54:33.385Z,357.70
2019-06-10T06:55:08.227Z,356.80
2019-06-10T06:55:43.993Z,349.40
2019-06-10T06:56:19.440Z,357.20
2019-06-10T06:56:55.243Z,350.40
2019-06-10T06:57:33.294Z,366.70
2019-06-10T06:58:06.072Z,368.40
2019-06-10T06:58:43.313Z,357.10
2019-06-10T06:59:16.893Z,360.10
2019-06-10T06:59:52.605Z,357.50
2019-06-10T07:00:43.053Z,352.60
2019-06-10T07:01:10.203Z,354.60
2019-06-10T07:01:39.544Z,343.20
2019-06-10T07:02:14.037Z,342.40
2019-06-10T07:02:49.518Z,346.90
2019-06-10T07:03:24.841Z,338.10
2019-06-10T07:04:02.456Z,336.20
2019-06-10T07:04:37.082Z,328.60
2019-06-10T07:05:12.565Z,333.00
2019-06-10T07:05:46.968Z,337.10
2019-06-10T07:06:22.917Z,341.20
2019-06-10T07:06:58.222Z,340.60
2019-06-10T07:07:35.656Z,334.40
2019-06-10T07:08:09.161Z,344.10
2019-06-10T07:08:57.747Z,350.30
2019-06-10T07:09:21.972Z,338.50
2019-06-10T07:09:55.601Z,340.80
2019-06-10T07:10:32.859Z,339.20
2019-06-10T07:11:06.345Z,332.70
2019-06-10T07:11:44.935Z,341.60
2019-06-10T07:12:17.491Z,340.60
2019-06-10T07:12:53.108Z,335.40
2019-06-10T07:13:28.474Z,334.30
2019-06-10T07:14:04.176Z,342.70
2019-06-10T07:14:40.836Z,324.40
2019-06-10T07:15:15.458Z,319.80
2019-06-10T07:15:53.283Z,340.10
2019-06-10T07:16:26.294Z,347.80
2019-06-10T07:17:03.969Z,342.10
2019-06-10T07:17:37.938Z,332.90
2019-06-10T07:18:13.005Z,317.70
2019-06-10T07:18:50.259Z,321.80
2019-06-10T07:19:23.408Z,328.90
2019-06-10T07:19:58.633Z,327.10
2019-06-10T07:20:36.669Z,337.90
2019-06-10T07:21:09.440Z,345.90
2019-06-10T07:22:05.305Z,354.90
2019-06-10T07:22:23.117Z,353.40